Time;durP1;ratioP1;P1;durP2;ratioP2;P2;SDS_P1;SDS_P2;PMS_P1;PMS_P2;Temp;Humidity;BMP_temperature;BMP_pressure;BME280_temperature;BME280_humidity;BME280_pressure;Samples;Min_cycle;Max_cycle;Signal;HPM_P1;HPM_P2
2022/02/16 00:02:13;;;;;;;608.20;576.03;;;8.00;99.90;;;;;;4996749;28;20963;-80
2022/02/16 00:04:41;;;;;;;626.70;589.33;;;8.00;99.90;;;;;;4997605;28;20454;-81
2022/02/16 00:07:08;;;;;;;628.33;592.40;;;8.00;99.90;;;;;;4996629;28;20925;-80
2022/02/16 00:09:35;;;;;;;627.90;591.20;;;8.00;99.90;;;;;;4996314;28;20460;-81
2022/02/16 00:12:02;;;;;;;628.33;590.47;;;8.00;99.90;;;;;;4996986;28;20504;-80
2022/02/16 00:14:29;;;;;;;627.40;588.97;;;8.00;99.90;;;;;;4996528;28;20477;-80
2022/02/16 00:16:57;;;;;;;600.77;566.13;;;8.00;99.90;;;;;;4996375;28;20990;-80
2022/02/16 00:19:24;;;;;;;629.67;592.97;;;8.00;99.90;;;;;;4996043;28;20469;-80
2022/02/16 00:21:51;;;;;;;621.37;586.90;;;8.00;99.90;;;;;;4996614;28;20454;-80
2022/02/16 00:24:18;;;;;;;658.23;619.33;;;8.00;99.90;;;;;;4996300;28;20450;-81
2022/02/16 00:26:45;;;;;;;654.30;611.00;;;8.10;99.90;;;;;;4996639;28;20524;-80
2022/02/16 00:29:12;;;;;;;644.97;605.17;;;8.00;99.90;;;;;;4995802;28;21020;-81
2022/02/16 00:31:38;;;;;;;628.13;591.20;;;8.10;99.90;;;;;;4996626;28;20958;-81
2022/02/16 00:34:07;;;;;;;640.30;599.60;;;8.10;99.90;;;;;;4996414;28;20970;-80
2022/02/16 00:36:35;;;;;;;649.50;606.40;;;8.20;99.90;;;;;;4996623;28;20461;-80
2022/02/16 00:39:01;;;;;;;644.60;603.17;;;8.10;99.90;;;;;;4995905;28;20510;-80
2022/02/16 00:41:30;;;;;;;630.63;592.53;;;8.20;99.90;;;;;;4996105;28;20462;-82
2022/02/16 00:43:58;;;;;;;626.43;589.77;;;8.20;99.90;;;;;;4996889;28;20833;-81
2022/02/16 00:46:25;;;;;;;655.60;613.00;;;8.20;99.90;;;;;;4997373;28;20546;-81
2022/02/16 00:48:52;;;;;;;651.13;608.50;;;8.20;99.90;;;;;;4995733;28;21016;-80
2022/02/16 00:51:20;;;;;;;632.83;595.37;;;8.20;99.90;;;;;;4996113;28;20836;-82
2022/02/16 00:53:47;;;;;;;650.07;609.50;;;8.20;99.90;;;;;;4996133;28;20864;-82
2022/02/16 00:56:14;;;;;;;640.90;602.30;;;8.20;99.90;;;;;;4996646;28;20461;-80
2022/02/16 00:58:41;;;;;;;635.17;597.80;;;8.30;99.90;;;;;;4996845;28;20906;-80
2022/02/16 01:01:08;;;;;;;611.03;577.60;;;8.30;99.90;;;;;;4997356;28;20450;-80
2022/02/16 01:03:35;;;;;;;605.37;572.20;;;8.40;99.90;;;;;;4996966;28;20970;-80
2022/02/16 01:06:02;;;;;;;623.90;588.53;;;8.40;99.90;;;;;;4997689;28;20453;-80
2022/02/16 01:08:30;;;;;;;604.57;572.37;;;8.30;99.90;;;;;;4997722;28;20484;-81
2022/02/16 01:10:57;;;;;;;644.93;608.73;;;8.40;99.90;;;;;;4999656;28;20454;-81
2022/02/16 01:13:24;;;;;;;610.47;577.23;;;8.40;99.90;;;;;;4998850;28;20831;-80
2022/02/16 01:15:51;;;;;;;618.53;585.10;;;8.40;99.90;;;;;;4979077;28;20542;-80
2022/02/16 01:18:18;;;;;;;648.03;612.03;;;8.40;99.90;;;;;;4978894;28;20981;-81
2022/02/16 01:20:49;;;;;;;621.80;587.70;;;8.30;99.90;;;;;;4996671;28;20457;-80
2022/02/16 01:23:18;;;;;;;619.00;584.20;;;8.40;99.90;;;;;;4997945;28;20969;-81
2022/02/16 01:25:47;;;;;;;615.90;581.70;;;8.40;99.90;;;;;;4997760;28;20450;-81
2022/02/16 01:28:13;;;;;;;617.70;583.70;;;8.40;99.90;;;;;;4998245;28;20497;-80
2022/02/16 01:30:40;;;;;;;624.50;590.43;;;8.40;99.90;;;;;;4997277;28;20685;-80
2022/02/16 01:33:07;;;;;;;633.90;597.97;;;8.40;99.90;;;;;;4999004;28;20477;-81
2022/02/16 01:35:34;;;;;;;628.10;593.80;;;8.50;99.90;;;;;;4998005;28;20973;-80
2022/02/16 01:38:02;;;;;;;584.07;554.60;;;8.50;99.90;;;;;;4999003;28;20484;-81
2022/02/16 01:40:29;;;;;;;623.03;588.93;;;8.60;99.90;;;;;;5000880;28;20469;-81
2022/02/16 01:43:01;;;;;;;623.43;588.07;;;8.50;99.90;;;;;;4999938;28;20453;-81
2022/02/16 01:45:29;;;;;;;601.50;569.43;;;8.40;99.90;;;;;;4998736;28;20446;-81
2022/02/16 01:48:00;;;;;;;603.87;572.50;;;8.50;99.90;;;;;;4997627;28;21042;-81
2022/02/16 01:50:29;;;;;;;618.00;584.17;;;8.60;99.90;;;;;;4998400;28;20489;-81
2022/02/16 01:52:56;;;;;;;616.63;582.80;;;8.40;99.90;;;;;;4998515;28;20470;-81
2022/02/16 01:55:22;;;;;;;586.70;555.60;;;8.50;99.90;;;;;;4998485;28;20468;-80
2022/02/16 01:57:50;;;;;;;601.37;567.77;;;8.50;99.90;;;;;;4995546;28;20470;-80
2022/02/16 02:00:18;;;;;;;601.53;567.47;;;8.50;99.90;;;;;;4996069;28;20978;-80
2022/02/16 02:02:45;;;;;;;615.33;577.93;;;8.40;99.90;;;;;;4995261;28;20815;-80
2022/02/16 02:05:12;;;;;;;620.70;583.13;;;8.40;99.90;;;;;;4995207;28;20469;-80
2022/02/16 02:07:40;;;;;;;634.83;595.40;;;8.50;99.90;;;;;;4995086;28;20476;-80
2022/02/16 02:10:07;;;;;;;626.57;588.27;;;8.40;99.90;;;;;;4995233;28;20549;-80
2022/02/16 02:12:34;;;;;;;630.30;592.30;;;8.50;99.90;;;;;;4995315;28;20816;-80
2022/02/16 02:15:01;;;;;;;634.50;593.00;;;8.60;99.90;;;;;;4997161;28;20463;-80
2022/02/16 02:17:29;;;;;;;616.77;578.10;;;8.40;99.90;;;;;;4999683;28;20493;-80
2022/02/16 02:19:56;;;;;;;629.53;591.53;;;8.60;99.90;;;;;;5000467;28;20454;-81
2022/02/16 02:22:24;;;;;;;635.83;596.53;;;8.60;99.90;;;;;;5001225;28;20449;-80
2022/02/16 02:24:52;;;;;;;656.13;613.27;;;8.60;99.90;;;;;;5001311;28;20453;-80
2022/02/16 02:27:21;;;;;;;628.67;591.50;;;8.60;99.90;;;;;;5000879;28;20466;-81
2022/02/16 02:29:48;;;;;;;632.07;594.50;;;8.60;99.90;;;;;;5001918;28;20453;-82
2022/02/16 02:32:17;;;;;;;632.00;594.10;;;8.60;99.90;;;;;;5000150;28;20454;-80
2022/02/16 02:34:43;;;;;;;645.33;605.90;;;8.60;99.90;;;;;;4999886;28;20482;-80
2022/02/16 02:37:10;;;;;;;659.40;619.20;;;8.60;99.90;;;;;;4999044;28;20476;-82
2022/02/16 02:39:41;;;;;;;676.00;632.60;;;8.60;99.90;;;;;;5002896;28;20839;-79
2022/02/16 02:42:08;;;;;;;664.97;623.97;;;8.60;99.90;;;;;;5001534;28;20454;-81
2022/02/16 02:44:35;;;;;;;656.97;618.17;;;8.60;99.90;;;;;;5002917;28;20457;-83
2022/02/16 02:47:11;;;;;;;645.57;608.00;;;8.60;99.90;;;;;;5002912;28;20464;-81
2022/02/16 02:49:38;;;;;;;645.50;607.70;;;8.70;99.90;;;;;;5002684;28;20516;-81
2022/02/16 02:52:09;;;;;;;640.30;603.50;;;8.70;99.90;;;;;;5003082;28;20528;-81
2022/02/16 02:54:44;;;;;;;644.20;607.00;;;8.70;99.90;;;;;;5001097;28;20484;-81
2022/02/16 02:57:11;;;;;;;640.30;603.83;;;8.70;99.90;;;;;;5003094;28;20632;-81
2022/02/16 02:59:42;;;;;;;639.17;602.37;;;8.70;99.90;;;;;;5001898;28;20950;-81
2022/02/16 03:02:18;;;;;;;640.20;603.80;;;8.70;99.90;;;;;;5002954;28;20450;-81
2022/02/16 03:04:49;;;;;;;646.20;609.20;;;8.70;99.90;;;;;;5002802;28;20458;-81
2022/02/16 03:07:36;;;;;;;649.80;613.90;;;8.70;99.90;;;;;;4999498;28;20552;-82
2022/02/16 03:10:05;;;;;;;637.30;602.23;;;8.70;99.90;;;;;;5003300;28;20834;-81
2022/02/16 03:12:35;;;;;;;653.83;616.67;;;8.70;99.90;;;;;;5001901;28;20492;-80
2022/02/16 03:15:16;;;;;;;627.20;594.30;;;8.60;99.90;;;;;;5001592;28;20564;-81
2022/02/16 03:20:44;;;;;;;625.77;592.50;;;8.70;99.90;;;;;;5002949;28;20450;-81
2022/02/16 03:23:14;;;;;;;611.50;579.27;;;8.70;99.90;;;;;;5008900;28;20442;-84
2022/02/16 03:26:15;;;;;;;612.47;580.17;;;8.70;99.90;;;;;;5005046;28;20942;-80
2022/02/16 03:28:51;;;;;;;610.97;581.17;;;8.70;99.90;;;;;;5002433;28;20548;-81
2022/02/16 03:31:50;;;;;;;580.73;551.87;;;8.80;99.90;;;;;;5001814;28;20457;-83
2022/02/16 03:34:29;;;;;;;582.83;554.20;;;8.80;99.90;;;;;;5003113;28;20521;-81
2022/02/16 03:37:19;;;;;;;584.57;555.97;;;8.80;99.90;;;;;;5003174;28;20454;-82
2022/02/16 03:39:47;;;;;;;611.17;581.30;;;8.80;99.90;;;;;;5005433;28;20545;-83
2022/02/16 03:42:37;;;;;;;590.30;561.13;;;8.70;99.90;;;;;;5005567;28;20481;-83
2022/02/16 03:45:11;;;;;;;585.97;556.87;;;8.90;99.90;;;;;;4999178;28;20470;-80
2022/02/16 03:50:58;;;;;;;565.87;539.17;;;8.70;99.90;;;;;;4967359;29;20452;-79
2022/02/16 03:53:24;;;;;;;569.20;541.20;;;8.80;99.90;;;;;;4954959;29;20471;-82
2022/02/16 03:55:53;;;;;;;571.70;543.60;;;8.80;99.90;;;;;;4976814;28;20465;-81
2022/02/16 03:58:21;;;;;;;562.97;535.70;;;8.90;99.90;;;;;;5003006;28;20481;-82
2022/02/16 04:00:48;;;;;;;534.33;509.83;;;8.80;99.90;;;;;;5002612;28;20450;-82
2022/02/16 04:03:15;;;;;;;524.40;500.63;;;8.90;99.90;;;;;;4998846;28;20447;-84
2022/02/16 04:05:42;;;;;;;509.20;486.47;;;9.00;99.90;;;;;;4986183;28;20457;-83
2022/02/16 04:08:10;;;;;;;503.17;481.30;;;9.10;99.90;;;;;;5000348;28;20573;-84
2022/02/16 04:10:37;;;;;;;513.67;491.03;;;9.10;99.90;;;;;;4985368;28;20455;-83
2022/02/16 04:13:04;;;;;;;502.50;481.00;;;9.00;99.90;;;;;;4997384;28;20454;-83
2022/02/16 04:15:33;;;;;;;507.37;485.97;;;9.00;99.90;;;;;;5005852;28;20454;-82
2022/02/16 04:18:00;;;;;;;505.63;484.10;;;9.00;99.90;;;;;;5002549;28;20478;-83
2022/02/16 04:20:27;;;;;;;523.57;500.07;;;9.00;99.90;;;;;;5004862;28;20969;-83
2022/02/16 04:22:54;;;;;;;507.50;485.27;;;9.00;99.90;;;;;;4994460;28;20522;-82
2022/02/16 04:25:21;;;;;;;494.17;472.97;;;9.00;99.90;;;;;;4984158;28;20458;-81
2022/02/16 04:27:48;;;;;;;502.77;481.17;;;9.00;99.90;;;;;;4998805;28;20470;-82
2022/02/16 04:30:15;;;;;;;509.40;487.20;;;9.00;99.90;;;;;;4988684;28;20454;-85
2022/02/16 04:32:43;;;;;;;510.90;488.87;;;9.00;99.90;;;;;;5003592;28;20453;-84
2022/02/16 04:35:10;;;;;;;512.63;490.53;;;9.00;99.90;;;;;;5002187;28;20500;-82
2022/02/16 04:37:37;;;;;;;522.17;499.30;;;9.00;99.90;;;;;;5006288;28;20481;-81
2022/02/16 04:40:04;;;;;;;543.13;518.23;;;9.00;99.90;;;;;;5001206;28;20454;-82
2022/02/16 04:42:31;;;;;;;536.13;512.93;;;9.00;99.90;;;;;;4999048;28;20450;-80
2022/02/16 04:44:57;;;;;;;557.47;531.37;;;9.00;99.90;;;;;;4998363;28;20457;-81
2022/02/16 04:47:24;;;;;;;575.97;547.47;;;9.00;99.90;;;;;;4996571;28;20470;-80
2022/02/16 04:49:55;;;;;;;571.57;544.27;;;8.90;99.90;;;;;;4996404;28;20846;-80
2022/02/16 04:52:22;;;;;;;596.57;565.97;;;8.90;99.90;;;;;;4998400;28;20963;-81
2022/02/16 04:54:49;;;;;;;601.53;570.83;;;8.90;99.90;;;;;;4998406;28;20474;-81
2022/02/16 04:57:16;;;;;;;578.43;553.27;;;8.90;99.90;;;;;;4997246;28;20480;-81
2022/02/16 04:59:42;;;;;;;581.97;555.47;;;8.90;99.90;;;;;;4995383;28;20529;-81
2022/02/16 05:02:09;;;;;;;564.50;538.77;;;8.80;99.90;;;;;;4996140;28;20465;-80
2022/02/16 05:04:36;;;;;;;579.67;553.13;;;8.80;99.90;;;;;;4997165;28;20451;-80
2022/02/16 05:07:04;;;;;;;569.93;544.17;;;8.80;99.90;;;;;;4995010;28;20454;-79
2022/02/16 05:09:33;;;;;;;588.40;560.40;;;8.80;99.90;;;;;;4994998;28;20458;-81
2022/02/16 05:11:59;;;;;;;583.93;556.87;;;8.70;99.90;;;;;;4995550;28;20957;-80
2022/02/16 05:14:28;;;;;;;613.43;582.17;;;8.80;99.90;;;;;;4995505;28;20561;-80
2022/02/16 05:16:55;;;;;;;612.77;582.43;;;8.80;99.90;;;;;;4994940;28;20461;-80
2022/02/16 05:19:21;;;;;;;623.83;591.23;;;8.80;99.90;;;;;;4995576;28;20462;-81
2022/02/16 05:21:49;;;;;;;597.40;567.70;;;8.80;99.90;;;;;;4995244;28;20839;-80
2022/02/16 05:24:19;;;;;;;595.33;565.87;;;8.80;99.90;;;;;;4993841;28;20879;-81
2022/02/16 05:26:46;;;;;;;581.07;552.10;;;8.80;99.90;;;;;;4996129;28;20541;-82
2022/02/16 05:32:10;;;;;;;552.37;526.07;;;8.80;99.90;;;;;;4989926;28;20478;-82
2022/02/16 05:34:40;;;;;;;539.33;513.33;;;8.80;99.90;;;;;;5000111;28;20474;-81
2022/02/16 05:37:07;;;;;;;522.70;498.20;;;8.90;99.90;;;;;;4999635;28;20517;-83
2022/02/16 05:39:49;;;;;;;496.87;473.67;;;8.90;99.90;;;;;;4998610;28;20456;-81
2022/02/16 05:42:45;;;;;;;494.77;471.77;;;8.90;99.90;;;;;;4998337;28;20454;-81
2022/02/16 05:45:39;;;;;;;504.67;481.17;;;8.90;99.90;;;;;;4956484;28;20458;-81
2022/02/16 05:51:07;;;;;;;484.70;462.10;;;9.00;99.90;;;;;;4995311;28;20500;-81
2022/02/16 05:54:15;;;;;;;481.10;458.60;;;9.10;99.90;;;;;;4999840;28;20477;-85
2022/02/16 05:56:47;;;;;;;455.90;435.63;;;9.00;99.90;;;;;;4941698;29;20499;-82
2022/02/16 05:59:14;;;;;;;442.17;422.67;;;9.20;99.90;;;;;;4995170;28;20537;-81
2022/02/16 06:05:09;;;;;;;436.23;417.73;;;9.20;99.90;;;;;;5000146;28;20460;-82
2022/02/16 06:07:55;;;;;;;415.70;398.30;;;9.20;99.90;;;;;;4997055;28;20533;-81
2022/02/16 06:16:37;;;;;;;413.03;395.97;;;9.30;99.90;;;;;;4997904;28;20569;-84
2022/02/16 06:19:46;;;;;;;434.17;415.97;;;9.30;99.90;;;;;;4999180;28;20854;-82
2022/02/16 06:22:31;;;;;;;386.27;370.83;;;9.20;99.90;;;;;;4939101;28;20463;-81
2022/02/16 06:31:16;;;;;;;377.60;362.47;;;9.50;99.90;;;;;;4943422;28;20446;-83
2022/02/16 06:34:11;;;;;;;410.90;394.10;;;9.50;99.90;;;;;;4997335;28;20548;-85
2022/02/16 06:36:41;;;;;;;348.63;335.13;;;9.50;99.90;;;;;;4991206;28;20521;-83
2022/02/16 06:39:21;;;;;;;360.50;346.30;;;9.60;99.90;;;;;;5000548;28;21025;-84
2022/02/16 06:42:14;;;;;;;367.03;352.20;;;9.50;99.90;;;;;;4999457;28;20454;-84
2022/02/16 06:48:19;;;;;;;359.60;345.63;;;9.70;99.90;;;;;;4993371;28;21017;-83
2022/02/16 06:51:09;;;;;;;370.03;355.67;;;9.80;99.90;;;;;;5002128;28;20835;-83
2022/02/16 06:53:36;;;;;;;453.23;435.07;;;9.70;99.90;;;;;;4997242;28;20512;-81
2022/02/16 06:56:03;;;;;;;473.83;455.83;;;9.80;99.90;;;;;;4997798;28;20505;-82
2022/02/16 06:58:31;;;;;;;489.53;470.67;;;9.60;99.90;;;;;;4999232;28;20497;-82
2022/02/16 07:01:01;;;;;;;497.47;478.17;;;9.50;99.90;;;;;;4998106;28;20454;-82
2022/02/16 07:03:32;;;;;;;506.80;487.37;;;9.60;99.90;;;;;;4998430;28;20457;-82
2022/02/16 07:05:58;;;;;;;508.03;487.20;;;9.60;99.90;;;;;;5001935;28;20458;-83
2022/02/16 07:08:25;;;;;;;530.67;508.93;;;9.60;99.90;;;;;;5001657;28;20481;-81
2022/02/16 07:10:52;;;;;;;508.80;487.87;;;9.50;99.90;;;;;;5000110;28;20545;-83
2022/02/16 07:13:19;;;;;;;540.00;515.17;;;9.60;99.90;;;;;;4999446;28;20457;-82
2022/02/16 07:15:46;;;;;;;510.77;489.87;;;9.60;99.90;;;;;;4999179;28;20532;-82
2022/02/16 07:18:13;;;;;;;533.47;510.60;;;9.70;99.90;;;;;;5001663;28;20481;-83
2022/02/16 07:20:44;;;;;;;525.93;502.43;;;9.70;99.90;;;;;;5000073;28;20971;-82
2022/02/16 07:23:11;;;;;;;483.33;462.70;;;9.70;99.90;;;;;;4999230;28;20461;-82
2022/02/16 07:25:41;;;;;;;459.47;440.03;;;9.90;99.90;;;;;;4999819;28;20835;-82
2022/02/16 07:28:10;;;;;;;485.93;464.73;;;9.90;99.90;;;;;;5000229;28;20474;-86
2022/02/16 07:30:39;;;;;;;466.00;445.67;;;9.90;99.90;;;;;;5000426;28;20538;-82
2022/02/16 07:36:01;;;;;;;452.93;434.03;;;10.00;99.90;;;;;;4998209;28;20908;-82
2022/02/16 07:38:28;;;;;;;446.33;427.70;;;10.00;99.90;;;;;;4999473;28;20474;-82
2022/02/16 07:41:00;;;;;;;464.43;444.77;;;10.00;99.90;;;;;;4988445;28;20538;-83
2022/02/16 07:43:30;;;;;;;513.10;489.80;;;10.10;99.90;;;;;;4998586;28;20490;-82
2022/02/16 07:45:57;;;;;;;526.93;502.63;;;10.00;99.90;;;;;;4998790;28;20460;-82
2022/02/16 07:48:28;;;;;;;523.03;499.47;;;10.00;99.90;;;;;;4997224;28;20494;-84
2022/02/16 07:50:56;;;;;;;572.80;543.97;;;10.00;99.90;;;;;;5000197;28;20457;-82
2022/02/16 07:53:23;;;;;;;583.83;554.23;;;10.00;99.90;;;;;;4998809;28;20922;-82
2022/02/16 07:55:51;;;;;;;550.53;524.40;;;10.10;99.90;;;;;;4997483;28;20560;-82
2022/02/16 07:58:18;;;;;;;548.83;522.97;;;10.20;99.90;;;;;;4996228;28;20565;-81
2022/02/16 08:00:45;;;;;;;571.23;542.57;;;10.20;99.90;;;;;;4997907;28;20454;-83
2022/02/16 08:03:11;;;;;;;543.60;517.60;;;10.20;99.90;;;;;;4998772;28;20461;-82
2022/02/16 08:05:41;;;;;;;520.77;497.23;;;10.30;99.90;;;;;;4997083;28;20462;-82
2022/02/16 08:08:10;;;;;;;503.07;480.87;;;10.40;99.90;;;;;;4997504;28;20470;-81
2022/02/16 08:10:37;;;;;;;413.30;396.70;;;10.50;99.90;;;;;;5001345;28;20451;-80
2022/02/16 08:13:06;;;;;;;386.37;371.17;;;10.60;99.90;;;;;;4997799;28;20446;-82
2022/02/16 08:15:34;;;;;;;391.03;375.53;;;10.70;99.90;;;;;;4999560;28;20475;-83
2022/02/16 08:18:01;;;;;;;439.63;421.87;;;10.70;99.90;;;;;;4998607;28;20549;-83
2022/02/16 08:20:28;;;;;;;506.13;484.43;;;10.70;99.90;;;;;;5002297;28;20955;-83
2022/02/16 08:22:55;;;;;;;534.93;510.87;;;10.60;99.90;;;;;;5001200;28;20456;-81
2022/02/16 08:25:23;;;;;;;580.20;551.20;;;10.60;99.90;;;;;;5001960;28;20458;-84
2022/02/16 08:27:50;;;;;;;577.80;548.53;;;10.60;99.90;;;;;;5000561;28;20470;-84
2022/02/16 08:30:17;;;;;;;580.90;551.03;;;10.70;99.90;;;;;;5001356;28;20454;-82
2022/02/16 08:32:45;;;;;;;584.73;554.00;;;10.70;99.90;;;;;;4999173;28;20533;-82
2022/02/16 08:35:14;;;;;;;576.70;546.77;;;10.70;99.90;;;;;;4998529;28;20488;-83
2022/02/16 08:37:41;;;;;;;588.93;557.50;;;10.60;99.90;;;;;;5000167;28;20478;-82
2022/02/16 08:40:10;;;;;;;561.27;533.37;;;10.60;99.90;;;;;;4999940;28;20481;-82
2022/02/16 08:42:38;;;;;;;574.13;543.73;;;10.60;99.90;;;;;;5000649;28;20458;-83
2022/02/16 08:45:06;;;;;;;591.40;559.57;;;10.80;99.90;;;;;;5000628;28;20446;-83
2022/02/16 08:47:32;;;;;;;576.70;547.50;;;10.80;99.90;;;;;;4999226;28;20845;-82
2022/02/16 08:50:01;;;;;;;565.23;537.10;;;10.90;99.90;;;;;;4999529;28;20917;-83
2022/02/16 08:52:28;;;;;;;542.43;516.63;;;10.90;99.90;;;;;;5000325;28;20545;-82
2022/02/16 08:54:55;;;;;;;518.60;495.10;;;11.10;99.90;;;;;;5001101;28;20485;-82
2022/02/16 08:57:22;;;;;;;532.33;508.03;;;11.10;99.90;;;;;;4999987;28;20823;-83
2022/02/16 08:59:51;;;;;;;558.13;532.03;;;11.20;99.90;;;;;;5000207;28;20454;-82
2022/02/16 09:02:35;;;;;;;522.47;499.73;;;11.30;99.90;;;;;;5000116;28;20457;-83
2022/02/16 09:05:07;;;;;;;474.23;455.23;;;11.40;99.90;;;;;;4999965;28;20481;-83
2022/02/16 09:07:36;;;;;;;442.40;425.43;;;11.40;99.90;;;;;;5001761;28;20474;-84
2022/02/16 09:10:11;;;;;;;469.63;451.20;;;11.30;99.90;;;;;;5001217;28;20526;-84
2022/02/16 09:12:39;;;;;;;440.50;423.67;;;11.30;99.90;;;;;;4998824;28;20453;-84
2022/02/16 09:15:08;;;;;;;396.07;381.67;;;11.50;99.90;;;;;;4999757;28;20497;-85
2022/02/16 09:17:37;;;;;;;381.00;367.00;;;11.40;99.90;;;;;;4998896;28;20896;-84
2022/02/16 09:20:25;;;;;;;369.13;355.47;;;11.50;99.90;;;;;;4993046;28;20462;-84
2022/02/16 09:23:17;;;;;;;427.90;411.20;;;11.50;99.90;;;;;;4990138;28;20462;-84
2022/02/16 09:25:59;;;;;;;395.47;380.77;;;11.40;99.90;;;;;;4996561;28;20659;-84
2022/02/16 09:28:37;;;;;;;360.00;347.43;;;11.50;99.90;;;;;;4997234;28;20466;-84
2022/02/16 09:37:45;;;;;;;346.53;334.00;;;11.60;99.90;;;;;;4951540;28;20851;-86
2022/02/16 09:46:45;;;;;;;287.03;277.60;;;11.70;99.90;;;;;;4989175;28;20474;-85
2022/02/16 09:52:21;;;;;;;355.87;343.37;;;12.00;99.90;;;;;;4991168;28;20460;-85
2022/02/16 09:55:18;;;;;;;386.40;372.37;;;12.00;99.90;;;;;;4995270;28;20462;-86
2022/02/16 09:58:40;;;;;;;;;;;;;;;;;;;;;
2022/02/16 10:07:30;;;;;;;407.03;392.07;;;11.90;99.90;;;;;;4936930;28;20535;-83
2022/02/16 10:10:11;;;;;;;391.30;377.13;;;12.00;99.90;;;;;;4989024;28;20454;-84
2022/02/16 10:12:58;;;;;;;411.53;396.73;;;12.10;99.90;;;;;;5003835;28;20442;-84
2022/02/16 10:15:56;;;;;;;326.37;315.47;;;12.20;99.90;;;;;;5001257;28;20505;-84
2022/02/16 10:18:34;;;;;;;362.20;349.90;;;12.40;99.90;;;;;;5003380;28;20484;-84
2022/02/16 10:21:22;;;;;;;340.27;328.97;;;12.50;99.90;;;;;;5001124;28;20446;-85
2022/02/16 10:23:52;;;;;;;298.07;288.57;;;12.70;99.90;;;;;;5000631;28;20473;-85
2022/02/16 10:26:21;;;;;;;163.13;157.93;;;13.10;99.90;;;;;;5002747;28;20537;-83
2022/02/16 10:29:00;;;;;;;132.87;128.47;;;13.10;99.60;;;;;;4999703;28;20998;-84
2022/02/16 10:31:27;;;;;;;117.03;113.00;;;13.20;99.90;;;;;;5002359;28;20458;-83
2022/02/16 10:33:55;;;;;;;65.27;62.97;;;13.30;99.40;;;;;;5001918;28;20558;-83
2022/02/16 10:36:23;;;;;;;69.60;67.20;;;13.20;99.00;;;;;;5004902;28;20487;-84
2022/02/16 10:39:03;;;;;;;75.27;72.67;;;13.30;99.00;;;;;;5005906;28;21010;-83
2022/02/16 10:41:46;;;;;;;66.83;64.50;;;13.40;99.00;;;;;;5003573;28;20454;-82
2022/02/16 10:44:19;;;;;;;71.77;69.27;;;13.40;99.00;;;;;;5003820;28;20458;-82
2022/02/16 10:46:57;;;;;;;72.33;69.83;;;13.40;99.30;;;;;;5003089;28;20482;-84
2022/02/16 10:49:43;;;;;;;99.40;96.13;;;13.30;99.80;;;;;;5005120;28;20898;-83
2022/02/16 10:52:24;;;;;;;121.73;117.80;;;13.30;99.90;;;;;;4985340;28;20952;-84
2022/02/16 10:55:02;;;;;;;106.63;103.17;;;13.30;99.90;;;;;;4991242;28;20470;-82
2022/02/16 10:57:38;;;;;;;272.53;264.03;;;12.90;99.90;;;;;;5005512;28;20465;-81
2022/02/16 11:00:08;;;;;;;309.50;299.70;;;13.00;99.90;;;;;;5005245;28;20537;-82
2022/02/16 11:02:36;;;;;;;349.83;338.33;;;12.80;99.90;;;;;;5005010;28;20458;-82
2022/02/16 11:05:03;;;;;;;483.60;465.47;;;12.70;99.90;;;;;;5004299;28;20472;-82
2022/02/16 11:07:36;;;;;;;447.47;431.40;;;12.70;99.90;;;;;;5004481;28;20476;-82
2022/02/16 11:10:06;;;;;;;485.87;467.90;;;12.80;99.90;;;;;;5004084;28;20454;-82
2022/02/16 11:12:33;;;;;;;496.67;477.67;;;12.70;99.90;;;;;;5005435;28;20457;-83
2022/02/16 11:15:00;;;;;;;462.97;445.63;;;12.90;99.90;;;;;;5004846;28;20450;-82
2022/02/16 11:17:28;;;;;;;496.33;476.77;;;13.00;99.90;;;;;;5004648;28;20485;-81
2022/02/16 11:20:20;;;;;;;443.97;427.67;;;13.10;99.90;;;;;;5003172;28;20458;-84
2022/02/16 11:22:51;;;;;;;414.13;399.53;;;13.20;99.90;;;;;;5004469;28;20453;-83
2022/02/16 11:25:31;;;;;;;338.43;327.13;;;13.30;99.90;;;;;;5006830;28;20873;-83
2022/02/16 11:28:00;;;;;;;304.00;294.03;;;13.40;99.90;;;;;;4995980;28;20481;-82
2022/02/16 11:33:20;;;;;;;361.53;349.33;;;13.20;99.90;;;;;;5004041;28;20458;-84
2022/02/16 11:35:58;;;;;;;353.33;341.43;;;13.20;99.90;;;;;;5002287;28;20473;-82
2022/02/16 11:38:48;;;;;;;350.17;338.30;;;13.20;99.90;;;;;;5002937;28;20473;-83
2022/02/16 11:42:05;;;;;;;325.67;314.77;;;13.30;99.90;;;;;;5003459;28;20540;-82
2022/02/16 11:45:16;;;;;;;319.53;309.03;;;13.30;99.90;;;;;;4986117;28;20458;-83
2022/02/16 11:47:57;;;;;;;358.07;345.87;;;13.10;99.90;;;;;;5002429;28;20496;-84
2022/02/16 11:50:48;;;;;;;342.93;331.13;;;13.20;99.90;;;;;;5003214;28;20457;-82
2022/02/16 11:53:27;;;;;;;313.67;303.33;;;13.40;99.90;;;;;;4966184;28;20499;-82
2022/02/16 11:56:18;;;;;;;262.23;253.83;;;13.40;99.90;;;;;;5003866;28;20473;-82
2022/02/16 11:59:20;;;;;;;213.70;207.07;;;13.60;99.90;;;;;;5003266;28;20514;-83
2022/02/16 12:02:21;;;;;;;260.93;252.83;;;13.50;99.90;;;;;;5003198;28;20461;-83
2022/02/16 12:08:19;;;;;;;348.47;336.87;;;13.40;99.90;;;;;;4989731;28;20481;-84
2022/02/16 12:11:01;;;;;;;352.77;340.97;;;13.50;99.90;;;;;;5002238;28;21146;-84
2022/02/16 12:13:40;;;;;;;319.10;308.67;;;13.50;99.90;;;;;;5002161;28;20465;-83
2022/02/16 12:16:21;;;;;;;219.63;212.80;;;13.80;99.90;;;;;;5002759;28;20577;-83
2022/02/16 12:19:37;;;;;;;250.30;242.40;;;13.60;99.90;;;;;;5003059;28;20482;-83
2022/02/16 12:22:38;;;;;;;293.30;283.80;;;13.60;99.90;;;;;;4993161;28;20542;-84
2022/02/16 12:25:17;;;;;;;275.77;267.03;;;13.50;99.90;;;;;;4996314;28;20854;-82
2022/02/16 12:30:35;;;;;;;150.03;145.23;;;13.90;99.90;;;;;;5035701;28;20487;-82
2022/02/16 12:33:42;;;;;;;;;;;;;;;;;;;;;
2022/02/16 12:36:42;;;;;;;141.27;136.70;;;14.10;99.90;;;;;;5035401;28;20895;-82
2022/02/16 12:39:24;;;;;;;285.77;276.73;;;13.90;99.90;;;;;;5036825;28;20457;-84
2022/02/16 12:42:16;;;;;;;325.47;314.27;;;13.70;99.90;;;;;;5023181;28;20453;-82
2022/02/16 12:44:52;;;;;;;427.93;411.63;;;13.60;99.90;;;;;;4964663;28;20464;-83
2022/02/16 12:47:26;;;;;;;369.17;355.87;;;13.60;99.90;;;;;;5017833;28;20479;-82
2022/02/16 12:49:54;;;;;;;321.03;310.30;;;13.90;99.90;;;;;;5024256;28;20448;-82
2022/02/16 12:52:58;;;;;;;329.47;318.27;;;13.70;99.90;;;;;;5023838;28;20487;-82
2022/02/16 12:55:33;;;;;;;156.93;151.73;;;13.90;99.90;;;;;;5023358;28;20453;-81
2022/02/16 12:58:13;;;;;;;132.90;128.00;;;14.00;99.90;;;;;;5005386;28;20489;-82
2022/02/16 13:00:48;;;;;;;111.47;107.73;;;14.10;99.90;;;;;;5005810;28;20448;-82
2022/02/16 13:03:17;;;;;;;56.23;54.03;;;14.40;99.40;;;;;;5002926;28;20454;-81
2022/02/16 13:06:12;;;;;;;;;;;;;;;;;;;;;
2022/02/16 13:08:59;;;;;;;21.00;20.00;;;14.30;97.50;;;;;;4991799;28;21034;-82
2022/02/16 13:12:00;;;;;;;12.73;11.40;;;14.40;97.40;;;;;;5005653;28;20439;-82
2022/02/16 13:14:36;;;;;;;8.00;7.40;;;14.30;96.20;;;;;;4995925;28;20858;-82
2022/02/16 13:17:06;;;;;;;9.93;7.27;;;14.20;96.10;;;;;;5004757;28;20544;-82
2022/02/16 13:19:52;;;;;;;9.67;8.73;;;14.00;95.70;;;;;;5003374;28;20989;-82
2022/02/16 13:22:25;;;;;;;14.00;12.80;;;13.90;95.80;;;;;;5004303;28;20454;-81
2022/02/16 13:25:23;;;;;;;14.27;13.17;;;13.90;95.80;;;;;;5005310;28;20453;-82
2022/02/16 13:28:00;;;;;;;12.00;11.10;;;14.00;96.00;;;;;;5004437;28;20482;-81
2022/02/16 13:30:40;;;;;;;15.80;12.53;;;13.90;95.60;;;;;;5004626;28;20442;-81
2022/02/16 13:33:18;;;;;;;9.07;7.23;;;13.80;96.10;;;;;;5002384;28;20458;-81
2022/02/16 13:35:47;;;;;;;7.73;6.70;;;13.90;94.90;;;;;;5003566;28;20856;-81
2022/02/16 13:39:06;;;;;;;12.67;6.60;;;14.10;93.70;;;;;;5001984;28;20496;-81
2022/02/16 14:03:21;;;;;;;9.67;5.33;;;13.80;92.60;;;;;;4942064;28;20953;-82
2022/02/16 14:06:19;;;;;;;14.97;7.00;;;13.80;92.80;;;;;;5002189;28;20939;-81
2022/02/16 14:12:47;;;;;;;9.30;6.80;;;13.90;93.50;;;;;;4915177;29;20452;-81
2022/02/16 14:39:21;;;;;;;11.10;10.10;;;13.90;93.60;;;;;;4848167;29;20912;-81
2022/02/16 14:42:04;;;;;;;9.27;7.77;;;13.90;93.50;;;;;;4905261;29;20490;-81
2022/02/16 14:48:33;;;;;;;;;;;;;;;;;;;;;
2022/02/16 14:51:47;;;;;;;12.90;6.43;;;13.80;92.90;;;;;;4953700;28;20455;-81
2022/02/16 15:10:10;;;;;;;12.73;3.70;;;14.30;90.30;;;;;;4938907;29;20454;-83